Port Angeles Cgas Information

FAA: NOW - ICAO: KNOW

Port Angeles Cgas (Airport) Location

State Washington
County Clallam
City Port Angeles
Port Angeles Cgas (Airport) is 2 miles north of Port Angeles, WA.
Latitude 48-08-28.6535N
Longitude 123-24-50.2345W
Elevation 13ft

Port Angeles Cgas METARs

METAR KNOW 191115Z AUTO 26015KT 10SM OVC120 08/04 A3015 RMK AO2 T00780040
Altimeter 30.15"
Temperature 7.8°C (46.0°F)
Wind 260° at 15KT
Clouds overcast at 12,000ft
Visibility 10.0mi
Time observed: 2022-05-19T11:15:00Z

Port Angeles Cgas (Airport) Details

Status Operational
Activation July 1943
Ownership Coast Guard
Usage Private
Chart SEATTLE
ATC on-site No
Beacon schedule sunset-sunrise
Beacon color split clear green

Port Angeles Cgas (Airport) Contacts

Owner USCG
Owner address 1 EDIZ HOOK, PORT ANGELES, WA 98362
Owner phone N/A
Manager DAVID F. NELSON
Manager address 110 GORE ROAD, ONALASKA, WA 98570
Manager phone 360-978-4961

Port Angeles Cgas Radio Frequencies

Port Angeles Cgas (Airport) Radio Frequencies

UNICOM 122.975
Common traffic advisory frequency (CTAF) 122.975